createdAt,value
2019-04-14T00:01:12.745Z,4.90
2019-04-14T00:03:41.225Z,4.90
2019-04-14T00:06:09.009Z,4.90
2019-04-14T00:08:35.675Z,5.00
2019-04-14T00:11:02.046Z,5.00
2019-04-14T00:13:28.503Z,5.00
2019-04-14T00:15:55.225Z,5.00
2019-04-14T00:18:21.605Z,5.00
2019-04-14T00:20:49.157Z,5.10
2019-04-14T00:23:17.063Z,5.10
2019-04-14T00:25:43.735Z,5.10
2019-04-14T00:28:10.003Z,5.10
2019-04-14T00:30:36.603Z,5.10
2019-04-14T00:33:10.690Z,5.10
2019-04-14T00:35:42.686Z,5.20
2019-04-14T00:38:24.342Z,5.10
2019-04-14T00:41:11.604Z,5.20
2019-04-14T00:43:43.708Z,5.20
2019-04-14T00:46:15.063Z,5.20
2019-04-14T00:48:41.338Z,5.20
2019-04-14T00:51:09.065Z,5.20
2019-04-14T00:53:36.010Z,5.20
2019-04-14T00:56:03.952Z,5.20
2019-04-14T00:58:30.410Z,5.20
2019-04-14T01:00:58.029Z,5.20
2019-04-14T01:03:24.610Z,5.30
2019-04-14T01:05:51.091Z,5.20
2019-04-14T01:08:18.501Z,5.30
2019-04-14T01:10:45.422Z,5.30
2019-04-14T01:13:13.157Z,5.30
2019-04-14T01:15:53.665Z,5.30
2019-04-14T01:18:09.943Z,5.30
2019-04-14T01:20:36.411Z,5.30
2019-04-14T01:23:04.077Z,5.30
2019-04-14T01:25:30.635Z,5.30
2019-04-14T01:27:58.129Z,5.30
2019-04-14T01:30:26.176Z,5.30
2019-04-14T01:32:52.715Z,5.30
2019-04-14T01:35:20.297Z,5.30
2019-04-14T01:37:46.719Z,5.40
2019-04-14T01:40:14.112Z,5.40
2019-04-14T01:42:40.577Z,5.40
2019-04-14T01:45:09.945Z,5.30
2019-04-14T01:47:37.538Z,5.40
2019-04-14T01:50:05.910Z,5.40
2019-04-14T01:52:36.967Z,5.40
2019-04-14T01:55:17.644Z,5.40
2019-04-14T01:57:50.236Z,5.40
2019-04-14T02:00:24.945Z,5.40
2019-04-14T02:02:51.426Z,5.40
2019-04-14T02:05:19.108Z,5.40
2019-04-14T02:07:47.003Z,5.50
2019-04-14T02:10:15.036Z,5.50
2019-04-14T02:12:41.523Z,5.50
2019-04-14T02:15:09.103Z,5.50
2019-04-14T02:17:37.018Z,5.50
2019-04-14T02:20:06.194Z,5.50
2019-04-14T02:22:33.469Z,5.50
2019-04-14T02:25:01.379Z,5.50
2019-04-14T02:27:27.984Z,5.50
2019-04-14T02:29:54.287Z,5.50
2019-04-14T02:32:53.276Z,5.60
2019-04-14T02:37:45.145Z,5.60
2019-04-14T02:42:42.409Z,5.60
2019-04-14T02:45:08.888Z,5.60
2019-04-14T02:47:56.825Z,5.60
2019-04-14T02:54:59.903Z,5.60
2019-04-14T02:57:30.493Z,5.50
2019-04-14T03:00:03.479Z,5.50
2019-04-14T03:04:59.998Z,5.50
2019-04-14T03:07:36.254Z,5.50
2019-04-14T03:09:47.093Z,5.40
2019-04-14T03:12:28.414Z,5.40
2019-04-14T03:14:53.701Z,5.40
2019-04-14T03:20:19.322Z,5.40
2019-04-14T03:23:10.828Z,5.40
2019-04-14T03:25:26.517Z,5.50
2019-04-14T03:28:04.273Z,5.50
2019-04-14T03:31:21.768Z,5.50
2019-04-14T03:38:15.265Z,5.60
2019-04-14T03:40:44.624Z,5.60
2019-04-14T03:45:54.258Z,5.60
2019-04-14T03:48:33.873Z,5.60
2019-04-14T03:50:28.849Z,5.60
2019-04-14T03:53:12.011Z,5.60
2019-04-14T03:55:16.295Z,5.60
2019-04-14T03:57:32.443Z,5.50
2019-04-14T03:59:58.722Z,5.50
2019-04-14T04:02:25.096Z,5.50
2019-04-14T04:04:51.486Z,5.50
2019-04-14T04:07:19.148Z,5.50
2019-04-14T04:09:47.560Z,5.50
2019-04-14T04:12:14.017Z,5.50
2019-04-14T04:14:40.410Z,5.50
2019-04-14T04:17:15.122Z,5.50
2019-04-14T04:19:47.029Z,5.40
2019-04-14T04:22:32.638Z,5.40
2019-04-14T04:25:00.980Z,5.40
2019-04-14T04:27:29.281Z,5.40
2019-04-14T04:30:01.679Z,5.40
2019-04-14T04:33:06.604Z,5.40
2019-04-14T04:35:35.091Z,5.40
2019-04-14T04:38:07.244Z,5.40
2019-04-14T04:40:33.846Z,5.40
2019-04-14T04:43:01.216Z,5.40
2019-04-14T04:45:27.822Z,5.40
2019-04-14T04:47:55.530Z,5.40
2019-04-14T04:50:22.108Z,5.40
2019-04-14T04:52:49.623Z,5.40
2019-04-14T04:55:15.999Z,5.50
2019-04-14T04:57:44.147Z,5.50
2019-04-14T05:00:13.447Z,5.50
2019-04-14T05:02:40.299Z,5.50
2019-04-14T05:05:45.120Z,5.50
2019-04-14T05:08:11.525Z,5.50
2019-04-14T05:10:43.613Z,5.50
2019-04-14T05:13:11.775Z,5.50
2019-04-14T05:15:40.547Z,5.50
2019-04-14T05:18:07.160Z,5.50
2019-04-14T05:20:33.576Z,5.50
2019-04-14T05:22:59.943Z,5.60
2019-04-14T05:25:27.487Z,5.60
2019-04-14T05:27:53.923Z,5.60
2019-04-14T05:30:21.767Z,5.60
2019-04-14T05:32:48.262Z,5.70
2019-04-14T05:35:14.657Z,5.70
2019-04-14T05:37:42.119Z,5.70
2019-04-14T05:40:08.603Z,5.70
2019-04-14T05:42:36.162Z,5.80
2019-04-14T05:45:04.807Z,5.80
2019-04-14T05:47:31.180Z,5.90
2019-04-14T05:49:58.078Z,5.90
2019-04-14T05:52:25.733Z,5.90
2019-04-14T05:54:53.566Z,6.00
2019-04-14T05:57:20.031Z,6.10
2019-04-14T05:59:46.454Z,6.10
2019-04-14T06:02:13.707Z,6.20
2019-04-14T06:04:40.298Z,6.20
2019-04-14T06:07:06.844Z,6.30
2019-04-14T06:09:33.675Z,6.30
2019-04-14T06:11:59.986Z,6.40
2019-04-14T06:14:27.707Z,6.40
2019-04-14T06:16:54.108Z,6.50
2019-04-14T06:19:20.478Z,6.40
2019-04-14T06:21:46.977Z,6.40
2019-04-14T06:24:13.259Z,6.50
2019-04-14T06:26:39.652Z,6.50
2019-04-14T06:29:05.915Z,6.50
2019-04-14T06:31:50.966Z,6.50
2019-04-14T06:34:26.530Z,6.60
2019-04-14T06:37:09.897Z,6.60
2019-04-14T06:39:53.167Z,6.70
2019-04-14T06:42:19.554Z,6.70
2019-04-14T06:44:45.836Z,6.80
2019-04-14T06:47:12.139Z,6.80
2019-04-14T06:49:48.427Z,6.90
2019-04-14T06:52:06.691Z,6.90
2019-04-14T06:54:33.259Z,7.00
2019-04-14T06:56:59.689Z,7.10
2019-04-14T06:59:26.094Z,7.20
2019-04-14T07:01:52.696Z,7.30
2019-04-14T07:04:19.000Z,7.50
2019-04-14T07:06:45.383Z,7.60
2019-04-14T07:09:11.811Z,7.70
2019-04-14T07:11:38.308Z,7.90
2019-04-14T07:14:04.903Z,8.00
2019-04-14T07:16:31.562Z,8.20
2019-04-14T07:18:57.987Z,8.30
2019-04-14T07:21:24.399Z,8.40
2019-04-14T07:23:52.224Z,8.60
2019-04-14T07:26:18.711Z,8.70
2019-04-14T07:28:56.157Z,8.80
2019-04-14T07:31:19.763Z,8.80
2019-04-14T07:33:56.851Z,8.90
2019-04-14T07:36:41.760Z,9.00
2019-04-14T07:39:12.863Z,9.10
2019-04-14T07:41:50.110Z,9.10
2019-04-14T07:44:24.314Z,9.30
2019-04-14T07:47:04.711Z,9.30
2019-04-14T07:49:41.935Z,9.40
2019-04-14T07:52:13.166Z,9.50
2019-04-14T07:55:00.115Z,9.50
2019-04-14T07:57:34.326Z,9.60
2019-04-14T08:00:02.782Z,9.60
2019-04-14T08:02:43.642Z,9.70
2019-04-14T08:05:15.361Z,9.80
2019-04-14T08:07:42.632Z,9.80
2019-04-14T08:10:09.453Z,9.90
2019-04-14T08:12:36.182Z,10.00
2019-04-14T08:15:05.878Z,10.10
2019-04-14T08:17:32.551Z,10.10
2019-04-14T08:19:59.168Z,10.20
2019-04-14T08:22:25.450Z,10.30
2019-04-14T08:24:52.131Z,10.40
2019-04-14T08:27:18.426Z,10.50
2019-04-14T08:29:44.750Z,10.60
2019-04-14T08:32:11.534Z,10.70
2019-04-14T08:34:37.799Z,10.80
2019-04-14T08:37:04.182Z,11.00
2019-04-14T08:39:30.557Z,11.40
2019-04-14T08:42:01.688Z,12.10
2019-04-14T08:44:30.363Z,12.80
2019-04-14T08:47:01.288Z,13.70
2019-04-14T08:49:29.576Z,14.70
2019-04-14T08:52:09.761Z,15.70
2019-04-14T08:54:38.318Z,16.70
2019-04-14T08:57:12.863Z,17.70
2019-04-14T08:59:41.156Z,18.50
2019-04-14T09:02:12.415Z,19.20
2019-04-14T09:04:43.476Z,19.90
2019-04-14T09:07:17.997Z,20.60
2019-04-14T09:09:46.428Z,21.40
2019-04-14T09:12:16.148Z,22.10
2019-04-14T09:14:55.940Z,22.80
2019-04-14T09:17:11.371Z,23.50
2019-04-14T09:19:38.004Z,24.10
2019-04-14T09:22:04.631Z,24.70
2019-04-14T09:24:31.218Z,25.20
2019-04-14T09:26:57.606Z,25.60
2019-04-14T09:29:23.995Z,26.00
2019-04-14T09:31:50.369Z,26.40
2019-04-14T09:34:16.777Z,26.70
2019-04-14T09:36:43.152Z,27.00
2019-04-14T09:39:09.450Z,27.20
2019-04-14T09:41:36.234Z,27.40
2019-04-14T09:44:02.998Z,27.60
2019-04-14T09:46:29.879Z,27.80
2019-04-14T09:48:56.171Z,28.20
2019-04-14T09:51:22.483Z,28.40
2019-04-14T09:53:48.843Z,28.70
2019-04-14T09:56:15.127Z,29.00
2019-04-14T09:58:41.763Z,29.20
2019-04-14T10:01:09.141Z,29.50
2019-04-14T10:03:35.664Z,29.70
2019-04-14T10:06:02.255Z,30.00
2019-04-14T10:08:28.907Z,30.20
2019-04-14T10:10:55.314Z,30.30
2019-04-14T10:13:21.682Z,30.50
2019-04-14T10:15:48.087Z,30.60
2019-04-14T10:18:14.454Z,30.60
2019-04-14T10:20:40.743Z,30.50
2019-04-14T10:23:07.126Z,30.50
2019-04-14T10:25:33.412Z,30.50
2019-04-14T10:27:59.714Z,30.60
2019-04-14T10:30:26.422Z,30.70
2019-04-14T10:32:52.719Z,30.70
2019-04-14T10:35:19.367Z,30.70
2019-04-14T10:37:45.662Z,30.80
2019-04-14T10:40:12.332Z,30.80
2019-04-14T10:42:38.974Z,31.00
2019-04-14T10:45:06.176Z,31.20
2019-04-14T10:47:32.748Z,31.40
2019-04-14T10:49:59.023Z,31.60
2019-04-14T10:52:25.315Z,31.70
2019-04-14T10:54:51.694Z,31.90
2019-04-14T10:57:18.063Z,32.20
2019-04-14T10:59:44.730Z,32.30
2019-04-14T11:02:10.994Z,32.40
2019-04-14T11:04:37.566Z,32.60
2019-04-14T11:07:06.295Z,32.70
2019-04-14T11:09:32.790Z,32.80
2019-04-14T11:11:59.056Z,32.80
2019-04-14T11:14:25.355Z,32.80
2019-04-14T11:16:51.821Z,32.80
2019-04-14T11:19:18.105Z,32.80
2019-04-14T11:21:44.381Z,32.50
2019-04-14T11:24:10.777Z,32.30
2019-04-14T11:26:37.395Z,32.00
2019-04-14T11:29:04.270Z,31.70
2019-04-14T11:31:35.210Z,31.50
2019-04-14T11:34:02.877Z,31.20
2019-04-14T11:36:46.303Z,31.00
2019-04-14T11:39:14.588Z,30.90
2019-04-14T11:41:40.988Z,30.80
2019-04-14T11:44:08.205Z,30.80
2019-04-14T11:46:34.682Z,30.70
2019-04-14T11:49:01.468Z,30.60
2019-04-14T11:51:27.759Z,30.50
2019-04-14T11:53:54.189Z,30.30
2019-04-14T11:56:20.772Z,30.00
2019-04-14T11:58:47.049Z,29.80
2019-04-14T12:01:18.086Z,29.70
2019-04-14T12:03:55.423Z,29.70
2019-04-14T12:06:29.854Z,29.70
2019-04-14T12:09:01.427Z,29.80
2019-04-14T12:11:29.812Z,29.80
2019-04-14T12:13:56.082Z,29.90
2019-04-14T12:16:22.495Z,29.90
2019-04-14T12:18:48.883Z,30.00
2019-04-14T12:21:15.390Z,30.10
2019-04-14T12:23:41.662Z,30.20
2019-04-14T12:26:09.508Z,30.20
2019-04-14T12:28:36.168Z,30.10
2019-04-14T12:31:04.063Z,30.00
2019-04-14T12:33:30.678Z,29.80
2019-04-14T12:35:56.959Z,29.70
2019-04-14T12:38:23.369Z,29.60
2019-04-14T12:40:50.337Z,29.50
2019-04-14T12:43:35.839Z,29.40
2019-04-14T12:46:07.105Z,29.40
2019-04-14T12:48:41.290Z,29.30
2019-04-14T12:51:21.503Z,29.20
2019-04-14T12:53:47.799Z,29.10
2019-04-14T12:56:15.972Z,28.90
2019-04-14T12:58:50.282Z,28.90
2019-04-14T13:01:18.464Z,28.80
2019-04-14T13:03:45.054Z,28.70
2019-04-14T13:06:11.328Z,28.50
2019-04-14T13:08:38.088Z,28.30
2019-04-14T13:11:05.055Z,28.20
2019-04-14T13:13:31.455Z,28.20
2019-04-14T13:15:58.918Z,28.10
2019-04-14T13:18:25.323Z,28.10
2019-04-14T13:20:52.936Z,28.10
2019-04-14T13:23:19.368Z,28.10
2019-04-14T13:25:45.967Z,28.10
2019-04-14T13:28:12.330Z,28.20
2019-04-14T13:30:40.533Z,28.20
2019-04-14T13:33:06.800Z,28.20
2019-04-14T13:35:33.079Z,28.20
2019-04-14T13:37:59.607Z,28.20
2019-04-14T13:40:26.007Z,28.10
2019-04-14T13:42:52.270Z,28.10
2019-04-14T13:45:18.987Z,28.10
2019-04-14T13:47:45.556Z,28.10
2019-04-14T13:50:12.041Z,28.10
2019-04-14T13:52:46.457Z,28.20
2019-04-14T13:55:06.808Z,28.10
2019-04-14T13:57:33.400Z,28.10
2019-04-14T13:59:59.936Z,28.00
2019-04-14T14:02:26.695Z,28.00
2019-04-14T14:04:53.337Z,28.00
2019-04-14T14:07:19.953Z,28.00
2019-04-14T14:09:48.007Z,28.00
2019-04-14T14:12:19.147Z,27.90
2019-04-14T14:14:50.163Z,27.80
2019-04-14T14:17:18.355Z,27.70
2019-04-14T14:20:03.415Z,27.60
2019-04-14T14:22:32.036Z,27.40
2019-04-14T14:25:06.050Z,27.10
2019-04-14T14:27:32.426Z,26.70
2019-04-14T14:29:58.799Z,26.40
2019-04-14T14:32:30.269Z,26.10
2019-04-14T14:34:57.108Z,25.90
2019-04-14T14:37:23.581Z,25.70
2019-04-14T14:39:50.275Z,25.70
2019-04-14T14:42:16.691Z,25.60
2019-04-14T14:44:45.076Z,25.50
2019-04-14T14:47:13.383Z,25.40
2019-04-14T14:49:47.757Z,25.20
2019-04-14T14:52:18.834Z,25.10
2019-04-14T14:54:45.230Z,25.00
2019-04-14T14:57:11.831Z,25.00
2019-04-14T14:59:38.340Z,24.90
2019-04-14T15:02:04.806Z,24.80
2019-04-14T15:04:31.510Z,24.70
2019-04-14T15:06:57.989Z,24.60
2019-04-14T15:09:24.485Z,24.40
2019-04-14T15:11:51.147Z,24.30
2019-04-14T15:14:17.435Z,24.20
2019-04-14T15:16:43.707Z,24.10
2019-04-14T15:19:10.215Z,24.10
2019-04-14T15:21:36.774Z,24.10
2019-04-14T15:24:03.790Z,23.90
2019-04-14T15:26:40.732Z,23.70
2019-04-14T15:29:19.694Z,23.50
2019-04-14T15:31:53.053Z,23.20
2019-04-14T15:34:20.910Z,23.00
2019-04-14T15:36:47.214Z,22.90
2019-04-14T15:39:13.964Z,22.90
2019-04-14T15:41:40.474Z,22.80
2019-04-14T15:44:06.741Z,22.80
2019-04-14T15:46:33.136Z,22.70
2019-04-14T15:49:00.530Z,22.50
2019-04-14T15:51:27.356Z,22.30
2019-04-14T15:53:53.732Z,22.10
2019-04-14T15:56:40.147Z,21.90
2019-04-14T15:59:17.372Z,21.70
2019-04-14T16:01:45.664Z,21.60
2019-04-14T16:04:17.178Z,21.40
2019-04-14T16:06:48.393Z,21.30
2019-04-14T16:09:19.352Z,21.40
2019-04-14T16:12:04.538Z,21.30
2019-04-14T16:14:35.669Z,21.20
2019-04-14T16:17:16.042Z,21.00
2019-04-14T16:19:53.362Z,20.80
2019-04-14T16:22:23.585Z,20.50
2019-04-14T16:24:54.677Z,20.30
2019-04-14T16:27:32.638Z,20.00
2019-04-14T16:30:15.871Z,19.80
2019-04-14T16:32:44.525Z,19.60
2019-04-14T16:35:13.250Z,19.40
2019-04-14T16:37:39.635Z,19.20
2019-04-14T16:40:06.447Z,19.00
2019-04-14T16:42:33.465Z,18.80
2019-04-14T16:44:59.883Z,18.60
2019-04-14T16:47:26.262Z,18.50
2019-04-14T16:49:53.164Z,18.30
2019-04-14T16:52:30.443Z,18.20
2019-04-14T16:54:58.738Z,18.00
2019-04-14T16:57:44.183Z,17.90
2019-04-14T17:00:13.007Z,17.70
2019-04-14T17:02:40.234Z,17.60
2019-04-14T17:05:08.551Z,17.50
2019-04-14T17:07:37.269Z,17.40
2019-04-14T17:10:04.440Z,17.20
2019-04-14T17:12:31.420Z,17.10
2019-04-14T17:15:05.911Z,17.00
2019-04-14T17:17:40.439Z,17.00
2019-04-14T17:20:09.842Z,16.80
2019-04-14T17:22:51.606Z,16.70
2019-04-14T17:25:30.154Z,16.70
2019-04-14T17:28:08.156Z,16.60
2019-04-14T17:30:36.656Z,16.50
2019-04-14T17:33:07.983Z,16.40
2019-04-14T17:35:36.170Z,16.30
2019-04-14T17:38:10.718Z,16.20
2019-04-14T17:40:38.904Z,16.10
2019-04-14T17:43:07.219Z,16.00
2019-04-14T17:45:35.642Z,15.90
2019-04-14T17:48:06.602Z,15.80
2019-04-14T17:50:40.921Z,15.70
2019-04-14T17:53:05.266Z,15.70
2019-04-14T17:55:33.477Z,15.60
2019-04-14T17:58:01.845Z,15.50
2019-04-14T18:00:33.487Z,15.50
2019-04-14T18:03:01.996Z,15.40
2019-04-14T18:05:42.315Z,15.30
2019-04-14T18:08:10.520Z,15.30
2019-04-14T18:10:48.101Z,15.20
2019-04-14T18:13:16.399Z,15.10
2019-04-14T18:15:44.601Z,15.00
2019-04-14T18:18:16.390Z,14.90
2019-04-14T18:20:44.886Z,14.80
2019-04-14T18:23:11.350Z,14.70
2019-04-14T18:25:37.939Z,14.60
2019-04-14T18:28:06.219Z,14.50
2019-04-14T18:30:34.421Z,14.50
2019-04-14T18:33:11.735Z,14.40
2019-04-14T18:35:55.136Z,14.30
2019-04-14T18:38:29.485Z,14.20
2019-04-14T18:41:00.964Z,14.20
2019-04-14T18:43:46.879Z,14.10
2019-04-14T18:46:15.659Z,14.00
2019-04-14T18:48:55.908Z,13.90
2019-04-14T18:51:24.500Z,13.90
2019-04-14T18:54:04.935Z,13.80
2019-04-14T18:56:48.371Z,13.80
2019-04-14T18:59:28.854Z,13.70
2019-04-14T19:01:58.869Z,13.70
2019-04-14T19:04:26.439Z,13.60
2019-04-14T19:06:52.897Z,13.60
2019-04-14T19:09:19.250Z,13.60
2019-04-14T19:11:53.706Z,13.50
2019-04-14T19:14:21.881Z,13.50
2019-04-14T19:17:09.182Z,13.40
2019-04-14T19:19:37.454Z,13.40
2019-04-14T19:22:04.012Z,13.40
2019-04-14T19:24:30.751Z,13.40
2019-04-14T19:26:57.247Z,13.30
2019-04-14T19:29:23.844Z,13.30
2019-04-14T19:31:54.885Z,13.20
2019-04-14T19:34:22.883Z,13.20
2019-04-14T19:36:49.554Z,13.10
2019-04-14T19:39:15.848Z,13.10
2019-04-14T19:41:43.049Z,13.10
2019-04-14T19:44:20.817Z,13.00
2019-04-14T19:46:48.451Z,13.00
2019-04-14T19:49:23.794Z,13.00
2019-04-14T19:51:56.079Z,12.90
2019-04-14T19:54:54.579Z,12.90
2019-04-14T20:00:44.965Z,12.80
2019-04-14T20:03:17.372Z,12.70
2019-04-14T20:06:07.351Z,12.60
2019-04-14T20:08:47.413Z,12.60
2019-04-14T20:11:20.504Z,12.60
2019-04-14T20:13:52.624Z,12.50
2019-04-14T20:16:34.506Z,12.50
2019-04-14T20:19:21.924Z,12.50
2019-04-14T20:22:28.158Z,12.40
2019-04-14T20:24:59.290Z,12.40
2019-04-14T20:27:30.561Z,12.40
2019-04-14T20:30:11.582Z,12.40
2019-04-14T20:32:45.071Z,12.30
2019-04-14T20:35:16.361Z,12.30
2019-04-14T20:37:43.203Z,12.30
2019-04-14T20:40:09.770Z,12.30
2019-04-14T20:42:36.259Z,12.30
2019-04-14T20:45:05.865Z,12.20
2019-04-14T20:47:32.255Z,12.20
2019-04-14T20:49:58.879Z,12.20
2019-04-14T20:52:26.146Z,12.20
2019-04-14T20:54:52.509Z,12.20
2019-04-14T20:57:18.799Z,12.10
2019-04-14T20:59:45.062Z,12.10
2019-04-14T21:02:22.667Z,12.10
2019-04-14T21:04:50.934Z,12.10
2019-04-14T21:07:35.951Z,12.10
2019-04-14T21:10:05.817Z,12.10
2019-04-14T21:12:36.725Z,12.00
2019-04-14T21:15:16.135Z,12.00
2019-04-14T21:17:50.226Z,12.00
2019-04-14T21:20:18.390Z,11.90
2019-04-14T21:22:55.901Z,11.90
2019-04-14T21:25:24.077Z,11.90
2019-04-14T21:28:09.578Z,11.90
2019-04-14T21:30:41.236Z,11.90
2019-04-14T21:33:24.580Z,11.80
2019-04-14T21:36:01.893Z,11.80
2019-04-14T21:38:36.026Z,11.80
2019-04-14T21:41:04.557Z,11.80
2019-04-14T21:43:30.937Z,11.80
2019-04-14T21:45:57.528Z,11.80
2019-04-14T21:48:23.983Z,11.80
2019-04-14T21:50:50.607Z,11.80
2019-04-14T21:53:17.028Z,11.80
2019-04-14T21:55:43.666Z,11.80
2019-04-14T21:58:23.905Z,11.70
2019-04-14T22:01:04.951Z,11.80
2019-04-14T22:03:36.090Z,11.70
2019-04-14T22:06:04.649Z,11.70
2019-04-14T22:08:49.555Z,11.70
2019-04-14T22:11:20.679Z,11.70
2019-04-14T22:13:47.274Z,11.70
2019-04-14T22:16:13.639Z,11.60
2019-04-14T22:18:41.122Z,11.60
2019-04-14T22:21:07.803Z,11.60
2019-04-14T22:23:34.544Z,11.60
2019-04-14T22:26:01.035Z,11.60
2019-04-14T22:28:27.402Z,11.60
2019-04-14T22:30:53.695Z,11.60
2019-04-14T22:33:20.072Z,11.60
2019-04-14T22:35:46.351Z,11.60
2019-04-14T22:38:12.725Z,11.60
2019-04-14T22:40:39.495Z,11.60
2019-04-14T22:43:05.958Z,11.60
2019-04-14T22:45:32.642Z,11.60
2019-04-14T22:47:58.953Z,11.60
2019-04-14T22:50:25.825Z,11.60
2019-04-14T22:52:52.463Z,11.60
2019-04-14T22:55:19.074Z,11.50
2019-04-14T22:57:45.435Z,11.50
2019-04-14T23:00:17.031Z,11.50
2019-04-14T23:02:50.075Z,11.60
2019-04-14T23:05:30.611Z,11.50
2019-04-14T23:07:58.804Z,11.50
2019-04-14T23:10:43.867Z,11.40
2019-04-14T23:13:12.138Z,11.40
2019-04-14T23:15:40.535Z,11.40
2019-04-14T23:18:11.572Z,11.40
2019-04-14T23:20:39.778Z,11.40
2019-04-14T23:23:20.528Z,11.40
2019-04-14T23:25:47.269Z,11.30
2019-04-14T23:28:13.734Z,11.30
2019-04-14T23:30:40.098Z,11.30
2019-04-14T23:33:06.387Z,11.30
2019-04-14T23:35:32.669Z,11.30
2019-04-14T23:37:59.031Z,11.30
2019-04-14T23:40:25.863Z,11.30
2019-04-14T23:42:52.257Z,11.20
2019-04-14T23:45:19.035Z,11.20
2019-04-14T23:47:45.337Z,11.20
2019-04-14T23:50:12.019Z,11.20
2019-04-14T23:52:38.811Z,11.20
2019-04-14T23:55:05.998Z,11.20
2019-04-14T23:57:32.359Z,11.20
2019-04-14T23:59:58.672Z,11.20
